Time;durP1;ratioP1;P1;durP2;ratioP2;P2;SDS_P1;SDS_P2;PMS_P1;PMS_P2;Temp;Humidity;BMP_temperature;BMP_pressure;BME280_temperature;BME280_humidity;BME280_pressure;Samples;Min_cycle;Max_cycle;Signal;HPM_P1;HPM_P2
2021/06/24 00:05:17;;;;;;;14.55;4.97;;;24.20;79.20;;;;;;5077945;28;20434;-90
2021/06/24 00:07:43;;;;;;;12.70;5.18;;;24.10;79.80;;;;;;5076805;28;20025;-90
2021/06/24 00:10:09;;;;;;;16.05;5.13;;;24.10;79.60;;;;;;5075250;28;20456;-90
2021/06/24 00:12:35;;;;;;;13.88;5.30;;;24.10;79.30;;;;;;5074601;28;20029;-90
2021/06/24 00:15:00;;;;;;;11.63;4.30;;;24.10;79.40;;;;;;5074660;28;20108;-90
2021/06/24 00:17:26;;;;;;;18.83;5.22;;;24.10;79.60;;;;;;5076942;28;20021;-90
2021/06/24 00:19:52;;;;;;;12.20;5.00;;;24.10;79.00;;;;;;5074759;28;20071;-90
2021/06/24 00:22:17;;;;;;;14.82;4.43;;;24.10;79.00;;;;;;5074761;28;20045;-90
2021/06/24 00:24:43;;;;;;;12.25;5.13;;;24.10;79.00;;;;;;5077392;28;20033;-90
2021/06/24 00:27:09;;;;;;;15.98;4.43;;;24.10;78.70;;;;;;5080132;28;20021;-91
2021/06/24 00:29:34;;;;;;;9.52;4.28;;;24.00;78.60;;;;;;5087540;28;20088;-90
2021/06/24 00:32:00;;;;;;;9.82;4.00;;;24.00;78.50;;;;;;5092202;28;20020;-90
2021/06/24 00:34:26;;;;;;;9.13;3.58;;;23.90;78.40;;;;;;5091795;28;20028;-90
2021/06/24 00:36:52;;;;;;;10.82;4.07;;;24.00;78.40;;;;;;5090240;28;20029;-90
2021/06/24 00:39:17;;;;;;;9.88;3.72;;;24.00;78.20;;;;;;5083647;28;20033;-90
2021/06/24 00:41:44;;;;;;;9.10;3.88;;;23.90;78.00;;;;;;5080279;28;20032;-90
2021/06/24 00:44:09;;;;;;;13.57;4.75;;;23.90;78.10;;;;;;5080554;28;20036;-90
2021/06/24 00:46:35;;;;;;;10.68;4.65;;;23.80;77.90;;;;;;5080199;28;20025;-90
2021/06/24 00:49:03;;;;;;;12.25;4.47;;;23.80;77.90;;;;;;5079372;28;20475;-90
2021/06/24 00:51:29;;;;;;;11.13;4.57;;;23.80;78.00;;;;;;5081605;28;20384;-90
2021/06/24 00:53:55;;;;;;;11.30;4.10;;;23.80;78.10;;;;;;5080536;28;20016;-89
2021/06/24 00:56:27;;;;;;;14.20;4.60;;;23.80;78.20;;;;;;5083219;28;20031;-90
2021/06/24 00:58:53;;;;;;;12.30;4.18;;;23.70;78.30;;;;;;5082003;28;20032;-90
2021/06/24 01:01:18;;;;;;;12.07;4.45;;;23.70;78.40;;;;;;5082034;28;20379;-90
2021/06/24 01:03:44;;;;;;;16.08;5.18;;;23.70;78.60;;;;;;5079785;28;20035;-90
2021/06/24 01:06:10;;;;;;;15.80;4.78;;;23.60;78.70;;;;;;5080898;28;20021;-90
2021/06/24 01:08:35;;;;;;;13.57;4.30;;;23.60;78.80;;;;;;5081993;28;20032;-90
2021/06/24 01:11:01;;;;;;;8.13;3.97;;;23.60;79.00;;;;;;5080341;28;20048;-90
2021/06/24 01:13:28;;;;;;;12.35;4.00;;;23.60;78.80;;;;;;5078494;28;20027;-90
2021/06/24 01:15:54;;;;;;;6.32;3.65;;;23.60;78.90;;;;;;5078030;28;20028;-90
2021/06/24 01:18:19;;;;;;;6.22;3.15;;;23.50;79.00;;;;;;5080255;28;20064;-90
2021/06/24 01:20:45;;;;;;;10.10;3.63;;;23.50;78.80;;;;;;5078885;28;20044;-91
2021/06/24 01:23:12;;;;;;;10.43;4.43;;;23.50;78.50;;;;;;5079716;28;20047;-90
2021/06/24 01:25:38;;;;;;;10.00;4.53;;;23.60;77.90;;;;;;5087742;28;20037;-90
2021/06/24 01:28:06;;;;;;;9.60;4.30;;;23.60;77.70;;;;;;5083477;28;20091;-91
2021/06/24 01:30:33;;;;;;;8.73;3.15;;;23.60;77.50;;;;;;5087034;28;20036;-90
2021/06/24 01:32:59;;;;;;;4.70;2.80;;;23.60;77.40;;;;;;5084714;28;20029;-90
2021/06/24 01:35:27;;;;;;;10.80;3.45;;;23.60;77.40;;;;;;5087959;28;20028;-90
2021/06/24 01:38:06;;;;;;;4.70;2.80;;;23.60;77.40;;;;;;5097293;28;20055;-90
2021/06/24 01:40:33;;;;;;;6.18;2.97;;;23.60;77.40;;;;;;5101041;28;20051;-91
2021/06/24 01:43:00;;;;;;;7.20;3.10;;;23.60;77.50;;;;;;5101069;28;20013;-90
2021/06/24 01:45:26;;;;;;;8.05;2.78;;;23.60;77.60;;;;;;5101054;28;20013;-89
2021/06/24 01:47:52;;;;;;;10.10;3.03;;;23.50;77.70;;;;;;5089274;28;20029;-90
2021/06/24 01:50:18;;;;;;;6.25;3.47;;;23.50;77.70;;;;;;5082776;28;20035;-90
2021/06/24 01:52:45;;;;;;;5.47;3.20;;;23.50;77.80;;;;;;5083508;28;20535;-90
2021/06/24 01:55:15;;;;;;;10.68;3.05;;;23.50;77.90;;;;;;5080988;28;20066;-90
2021/06/24 01:57:41;;;;;;;4.68;2.78;;;23.50;77.90;;;;;;5081382;28;20031;-90
2021/06/24 02:00:08;;;;;;;10.02;3.58;;;23.50;78.00;;;;;;5080575;28;20025;-90
2021/06/24 02:02:35;;;;;;;8.27;3.22;;;23.50;78.50;;;;;;5078812;28;20425;-91
2021/06/24 02:05:01;;;;;;;5.43;2.97;;;23.50;78.00;;;;;;5086272;28;20025;-91
2021/06/24 02:07:27;;;;;;;4.38;2.92;;;23.50;78.00;;;;;;5087695;28;20021;-90
2021/06/24 02:09:52;;;;;;;9.75;3.83;;;23.50;78.10;;;;;;5086202;28;20032;-90
2021/06/24 02:12:18;;;;;;;9.35;2.95;;;23.60;78.20;;;;;;5084076;28;20120;-90
2021/06/24 02:14:44;;;;;;;12.27;3.25;;;23.60;78.20;;;;;;5076792;28;20533;-90
2021/06/24 02:17:10;;;;;;;9.88;4.38;;;23.70;78.10;;;;;;5076558;28;20029;-90
2021/06/24 02:19:35;;;;;;;10.65;4.18;;;23.80;77.70;;;;;;5076967;28;20487;-90
2021/06/24 02:22:01;;;;;;;8.30;4.18;;;23.90;77.40;;;;;;5076758;28;20530;-90
2021/06/24 02:24:27;;;;;;;10.90;4.07;;;23.90;77.00;;;;;;5076374;28;20463;-90
2021/06/24 02:26:53;;;;;;;10.85;3.58;;;23.90;77.00;;;;;;5076680;28;20024;-90
2021/06/24 02:29:18;;;;;;;11.13;4.22;;;23.90;77.00;;;;;;5077834;28;20402;-91
2021/06/24 02:31:44;;;;;;;14.48;4.00;;;24.00;77.00;;;;;;5078035;28;20054;-90
2021/06/24 02:34:10;;;;;;;8.75;3.65;;;24.00;76.60;;;;;;5077747;28;20025;-90
2021/06/24 02:36:36;;;;;;;7.00;3.50;;;24.00;76.60;;;;;;5078590;28;20048;-91
2021/06/24 02:39:03;;;;;;;8.15;3.60;;;24.10;76.40;;;;;;5082495;28;20043;-90
2021/06/24 02:41:33;;;;;;;7.35;3.13;;;24.10;76.20;;;;;;5079477;28;20025;-91
2021/06/24 02:43:59;;;;;;;6.28;3.38;;;24.10;76.20;;;;;;5079650;28;20028;-91
2021/06/24 02:46:25;;;;;;;16.02;3.80;;;24.10;76.10;;;;;;5081264;28;20050;-90
2021/06/24 02:48:50;;;;;;;4.53;2.88;;;24.10;76.10;;;;;;5080522;28;20493;-91
2021/06/24 02:51:16;;;;;;;10.15;3.30;;;24.20;76.10;;;;;;5080920;28;20072;-90
2021/06/24 02:53:42;;;;;;;9.02;3.53;;;24.20;76.10;;;;;;5081957;28;20043;-91
2021/06/24 02:56:08;;;;;;;6.82;3.25;;;24.20;76.10;;;;;;5081067;28;20495;-91
2021/06/24 02:58:34;;;;;;;4.80;3.15;;;24.20;76.10;;;;;;5080321;28;20028;-91
2021/06/24 03:01:00;;;;;;;12.55;4.40;;;24.20;76.20;;;;;;5081566;28;20039;-91
2021/06/24 03:03:25;;;;;;;9.75;4.47;;;24.30;76.40;;;;;;5082573;28;20024;-91
2021/06/24 03:05:51;;;;;;;10.43;4.65;;;24.20;76.40;;;;;;5079736;28;20025;-90
2021/06/24 03:08:17;;;;;;;8.60;4.10;;;24.30;76.60;;;;;;5081906;28;20474;-90
2021/06/24 03:10:43;;;;;;;8.57;4.63;;;24.20;76.60;;;;;;5080273;28;20143;-90
2021/06/24 03:13:08;;;;;;;11.38;4.70;;;24.20;77.30;;;;;;5080671;28;20028;-90
2021/06/24 03:15:36;;;;;;;8.63;4.90;;;24.20;76.90;;;;;;5081388;28;20028;-91
2021/06/24 03:18:02;;;;;;;13.85;5.80;;;24.20;77.00;;;;;;5082948;28;20021;-91
2021/06/24 03:20:28;;;;;;;11.07;4.75;;;24.20;77.30;;;;;;5082686;28;20055;-91
2021/06/24 03:22:59;;;;;;;15.88;5.60;;;24.20;77.40;;;;;;5083173;28;20055;-90
2021/06/24 03:25:25;;;;;;;10.15;4.93;;;24.20;77.80;;;;;;5083206;28;20426;-90
2021/06/24 03:27:51;;;;;;;8.85;4.80;;;24.20;77.50;;;;;;5085238;28;20050;-90
2021/06/24 03:30:18;;;;;;;10.90;5.00;;;24.20;78.00;;;;;;5087732;28;20028;-90
2021/06/24 03:32:44;;;;;;;17.40;5.85;;;24.20;78.00;;;;;;5091548;28;20123;-90
2021/06/24 03:35:10;;;;;;;10.02;5.22;;;24.20;78.20;;;;;;5092305;28;20063;-90
2021/06/24 03:37:36;;;;;;;12.15;4.95;;;24.20;78.60;;;;;;5098376;28;20024;-90
2021/06/24 03:40:05;;;;;;;10.93;5.20;;;24.20;78.80;;;;;;5098678;28;20033;-90
2021/06/24 03:42:31;;;;;;;13.75;5.97;;;24.30;79.90;;;;;;5098844;28;20038;-91
2021/06/24 03:44:56;;;;;;;8.27;4.72;;;24.20;79.90;;;;;;5098793;28;20017;-89
2021/06/24 03:47:22;;;;;;;11.18;6.03;;;24.30;80.30;;;;;;5098067;28;20028;-89
2021/06/24 03:49:48;;;;;;;12.30;5.97;;;24.30;80.80;;;;;;5094312;28;20032;-89
2021/06/24 03:52:14;;;;;;;22.88;6.00;;;24.30;81.30;;;;;;5094016;28;20029;-90
2021/06/24 03:54:40;;;;;;;13.30;6.82;;;24.20;81.60;;;;;;5092567;28;20032;-90
2021/06/24 03:57:06;;;;;;;13.15;5.32;;;24.20;82.20;;;;;;5088335;28;20050;-90
2021/06/24 03:59:31;;;;;;;15.07;6.03;;;24.20;82.20;;;;;;5091423;28;20033;-90
2021/06/24 04:01:57;;;;;;;13.93;6.22;;;24.20;82.40;;;;;;5093845;28;20024;-90
2021/06/24 04:04:23;;;;;;;11.80;6.07;;;24.20;82.40;;;;;;5094458;28;20028;-90
2021/06/24 04:06:49;;;;;;;9.40;4.65;;;24.20;82.50;;;;;;5092698;28;20025;-90
2021/06/24 04:09:15;;;;;;;18.42;5.57;;;24.20;82.30;;;;;;5091966;28;20061;-90
2021/06/24 04:11:40;;;;;;;9.75;5.15;;;24.30;82.10;;;;;;5091818;28;20048;-90
2021/06/24 04:14:07;;;;;;;8.85;5.85;;;24.40;81.80;;;;;;5088283;28;20032;-90
2021/06/24 04:16:33;;;;;;;12.88;6.53;;;24.50;81.40;;;;;;5091046;28;20031;-90
2021/06/24 04:18:59;;;;;;;20.27;7.30;;;24.50;81.50;;;;;;5090711;28;20033;-90
2021/06/24 04:21:26;;;;;;;18.58;7.05;;;24.50;81.20;;;;;;5088991;28;20057;-90
2021/06/24 04:23:52;;;;;;;13.00;7.20;;;24.50;81.00;;;;;;5091405;28;20095;-90
2021/06/24 04:26:18;;;;;;;16.10;6.38;;;24.50;80.70;;;;;;5090052;28;20064;-89
2021/06/24 04:28:43;;;;;;;9.23;5.22;;;24.40;80.60;;;;;;5087764;28;20044;-89
2021/06/24 04:31:09;;;;;;;12.35;5.95;;;24.40;80.50;;;;;;5089960;28;20017;-90
2021/06/24 04:33:35;;;;;;;10.43;5.70;;;24.50;80.30;;;;;;5085095;28;20486;-91
2021/06/24 04:36:01;;;;;;;8.65;5.43;;;24.50;80.10;;;;;;5087461;28;20131;-89
2021/06/24 04:38:26;;;;;;;13.35;6.13;;;24.60;79.90;;;;;;5090548;28;20039;-90
2021/06/24 04:40:54;;;;;;;10.40;4.90;;;24.60;79.60;;;;;;5088262;28;20035;-90
2021/06/24 04:43:20;;;;;;;12.55;5.95;;;24.60;79.20;;;;;;5090745;28;20025;-90
2021/06/24 04:45:46;;;;;;;11.02;4.80;;;24.70;78.80;;;;;;5091562;28;20048;-90
2021/06/24 04:48:12;;;;;;;9.98;5.13;;;24.70;78.60;;;;;;5090648;28;20020;-89
2021/06/24 04:50:38;;;;;;;12.57;5.30;;;24.80;78.40;;;;;;5086974;28;20039;-90
2021/06/24 04:53:04;;;;;;;9.63;5.07;;;24.80;78.00;;;;;;5085341;28;20120;-90
2021/06/24 04:55:48;;;;;;;6.97;4.60;;;24.90;77.80;;;;;;5084096;28;20024;-90
2021/06/24 04:58:14;;;;;;;7.57;4.97;;;24.90;77.00;;;;;;5082546;28;20069;-89
2021/06/24 05:00:40;;;;;;;11.48;5.40;;;25.00;76.80;;;;;;5083181;28;20495;-89
2021/06/24 05:03:10;;;;;;;16.05;4.90;;;25.10;75.80;;;;;;5082374;28;20025;-90
2021/06/24 05:05:36;;;;;;;13.88;5.20;;;25.20;75.40;;;;;;5080816;28;20152;-90
2021/06/24 05:08:13;;;;;;;12.20;5.85;;;25.30;75.20;;;;;;5082867;28;20028;-90
2021/06/24 05:10:40;;;;;;;13.98;6.00;;;25.30;74.70;;;;;;5083028;28;20032;-90
2021/06/24 05:13:06;;;;;;;6.55;4.43;;;25.40;74.10;;;;;;5083037;28;20276;-90
2021/06/24 05:15:33;;;;;;;11.20;5.93;;;25.50;73.70;;;;;;5085549;28;20036;-90
2021/06/24 05:17:59;;;;;;;10.02;5.20;;;25.50;73.20;;;;;;5086785;28;20028;-90
2021/06/24 05:20:25;;;;;;;10.85;5.15;;;25.50;72.90;;;;;;5084668;28;20046;-90
2021/06/24 05:22:51;;;;;;;9.77;5.80;;;25.50;73.20;;;;;;5080623;28;20554;-90
2021/06/24 05:25:17;;;;;;;11.82;6.45;;;25.60;72.70;;;;;;5081235;28;20029;-90
2021/06/24 05:27:43;;;;;;;11.85;5.40;;;25.70;72.40;;;;;;5079837;28;20090;-89
2021/06/24 05:30:09;;;;;;;13.68;5.45;;;25.70;72.00;;;;;;5079984;28;20032;-91
2021/06/24 05:32:35;;;;;;;17.48;5.97;;;25.80;71.60;;;;;;5082245;28;20028;-91
2021/06/24 05:35:01;;;;;;;16.33;6.10;;;25.90;71.20;;;;;;5065863;28;20112;-91
2021/06/24 05:37:27;;;;;;;7.95;5.25;;;25.90;71.00;;;;;;5077112;28;20050;-91
2021/06/24 05:39:53;;;;;;;7.70;5.25;;;26.00;71.20;;;;;;5096075;28;20025;-90
2021/06/24 05:42:19;;;;;;;7.25;5.10;;;26.10;71.10;;;;;;5080473;28;20079;-90
2021/06/24 05:44:45;;;;;;;9.15;5.18;;;26.20;70.90;;;;;;5097152;28;20025;-90
2021/06/24 05:47:15;;;;;;;11.38;5.15;;;26.30;70.40;;;;;;5093396;28;20027;-89
2021/06/24 05:49:41;;;;;;;11.30;5.53;;;26.30;70.10;;;;;;5088154;28;20040;-90
2021/06/24 05:52:07;;;;;;;12.32;5.53;;;26.50;70.20;;;;;;5082554;28;20497;-90
2021/06/24 05:54:33;;;;;;;6.22;4.53;;;26.60;70.00;;;;;;5081343;28;20060;-90
2021/06/24 05:56:59;;;;;;;12.30;6.13;;;26.70;69.90;;;;;;5083566;28;20032;-89
2021/06/24 05:59:24;;;;;;;10.27;5.60;;;26.80;69.30;;;;;;5082506;28;20064;-90
2021/06/24 06:01:51;;;;;;;10.82;5.80;;;26.90;68.80;;;;;;5080303;28;20021;-89
2021/06/24 06:04:17;;;;;;;8.27;5.57;;;27.00;68.70;;;;;;5076615;28;20029;-92
2021/06/24 06:06:45;;;;;;;11.07;5.95;;;27.00;68.50;;;;;;5067542;28;20039;-92
2021/06/24 06:09:12;;;;;;;16.65;5.65;;;27.00;68.20;;;;;;5074174;28;20078;-91
2021/06/24 06:11:38;;;;;;;9.10;5.80;;;26.90;68.20;;;;;;5071575;28;20043;-90
2021/06/24 06:14:04;;;;;;;11.00;6.30;;;26.90;68.40;;;;;;5067717;28;20468;-91
2021/06/24 06:16:30;;;;;;;12.80;6.43;;;26.90;68.50;;;;;;5066264;28;20043;-90
2021/06/24 06:18:56;;;;;;;10.77;6.10;;;27.00;68.60;;;;;;5071220;28;20518;-91
2021/06/24 06:21:46;;;;;;;7.47;5.43;;;27.00;68.50;;;;;;5072240;28;20052;-90
2021/06/24 06:24:12;;;;;;;11.02;5.50;;;27.20;68.10;;;;;;5071589;28;20028;-91
2021/06/24 06:26:38;;;;;;;9.65;6.05;;;27.30;68.10;;;;;;5067457;28;20490;-90
2021/06/24 06:29:04;;;;;;;13.73;6.13;;;27.30;68.00;;;;;;5067140;28;20112;-92
2021/06/24 06:31:33;;;;;;;7.40;5.68;;;27.40;67.70;;;;;;5074127;28;20029;-91
2021/06/24 06:33:59;;;;;;;13.23;5.78;;;27.50;67.70;;;;;;5079597;28;20024;-90
2021/06/24 06:36:46;;;;;;;9.35;5.18;;;27.60;67.50;;;;;;5076508;28;20035;-91
2021/06/24 06:39:17;;;;;;;10.13;6.00;;;27.70;66.80;;;;;;5080901;28;20032;-91
2021/06/24 06:41:43;;;;;;;15.18;7.00;;;27.80;67.50;;;;;;5081333;28;20409;-91
2021/06/24 06:44:12;;;;;;;7.45;5.22;;;27.80;67.20;;;;;;5078278;28;20033;-91
2021/06/24 06:46:38;;;;;;;9.02;4.55;;;27.90;67.30;;;;;;5081942;28;20500;-90
2021/06/24 06:49:03;;;;;;;11.63;6.38;;;28.00;67.10;;;;;;5082442;28;20106;-89
2021/06/24 06:51:30;;;;;;;11.43;5.95;;;28.20;66.10;;;;;;5081678;28;20047;-90
2021/06/24 06:53:55;;;;;;;9.38;4.57;;;28.20;65.90;;;;;;5081199;28;20033;-90
2021/06/24 06:56:21;;;;;;;10.88;5.43;;;28.30;66.10;;;;;;5082421;28;20099;-91
2021/06/24 06:58:48;;;;;;;12.20;6.00;;;28.30;66.00;;;;;;5077287;28;20021;-90
2021/06/24 07:01:14;;;;;;;10.68;5.97;;;28.30;66.20;;;;;;5079781;28;20037;-90
2021/06/24 07:03:40;;;;;;;10.52;6.32;;;28.30;66.20;;;;;;5079202;28;20078;-90
2021/06/24 07:06:06;;;;;;;12.40;5.38;;;28.30;66.00;;;;;;5081022;28;20033;-90
2021/06/24 07:08:32;;;;;;;8.75;6.25;;;28.40;66.20;;;;;;5077041;28;20032;-90
2021/06/24 07:10:58;;;;;;;11.98;6.82;;;28.50;66.00;;;;;;5076801;28;20024;-92
2021/06/24 07:13:27;;;;;;;10.75;5.22;;;28.60;65.70;;;;;;5080575;28;20032;-92
2021/06/24 07:15:56;;;;;;;11.40;6.13;;;28.70;65.40;;;;;;5078655;28;20046;-90
2021/06/24 07:18:24;;;;;;;11.82;5.10;;;28.80;65.40;;;;;;5079819;28;20033;-91
2021/06/24 07:20:50;;;;;;;7.82;5.32;;;28.90;65.20;;;;;;5080654;28;20116;-91
2021/06/24 07:23:16;;;;;;;12.48;5.68;;;29.10;64.80;;;;;;5079311;28;20097;-90
2021/06/24 07:25:41;;;;;;;6.65;5.03;;;29.10;64.50;;;;;;5077985;28;20059;-91
2021/06/24 07:28:08;;;;;;;8.23;5.50;;;29.30;64.30;;;;;;5074362;28;20116;-90
2021/06/24 07:30:35;;;;;;;11.05;4.95;;;29.40;64.00;;;;;;5076019;28;20029;-90
2021/06/24 07:33:00;;;;;;;6.38;4.78;;;29.50;63.90;;;;;;5078810;28;20027;-91
2021/06/24 07:35:26;;;;;;;11.70;5.72;;;29.60;63.60;;;;;;5077146;28;20056;-91
2021/06/24 07:37:53;;;;;;;8.50;5.00;;;29.60;63.00;;;;;;5078253;28;20040;-91
2021/06/24 07:40:19;;;;;;;6.93;4.70;;;29.70;63.20;;;;;;5091722;28;20033;-90
2021/06/24 07:42:45;;;;;;;9.63;5.35;;;29.80;63.30;;;;;;5093695;28;20047;-90
2021/06/24 07:45:12;;;;;;;6.72;4.50;;;29.90;62.70;;;;;;5090558;28;20027;-92
2021/06/24 07:47:37;;;;;;;7.65;4.65;;;30.00;63.10;;;;;;5093733;28;20031;-91
2021/06/24 07:50:05;;;;;;;9.10;4.70;;;30.10;62.30;;;;;;5095574;28;20048;-91
2021/06/24 07:52:33;;;;;;;11.05;5.28;;;30.30;62.50;;;;;;5086887;28;20020;-91
2021/06/24 07:55:02;;;;;;;8.88;5.10;;;30.40;62.00;;;;;;5081144;28;20104;-90
2021/06/24 07:57:29;;;;;;;10.45;5.50;;;30.40;61.40;;;;;;5080670;28;20028;-89
2021/06/24 07:59:56;;;;;;;9.65;5.45;;;30.40;61.00;;;;;;5082399;28;20029;-90
2021/06/24 08:02:22;;;;;;;10.90;5.32;;;30.40;60.90;;;;;;5078582;28;20349;-90
2021/06/24 08:04:47;;;;;;;7.03;4.65;;;30.40;60.90;;;;;;5077752;28;20024;-90
2021/06/24 08:07:13;;;;;;;9.25;4.22;;;30.50;60.80;;;;;;5078726;28;20056;-91
2021/06/24 08:09:39;;;;;;;8.63;5.22;;;30.50;60.70;;;;;;5079447;28;20028;-91
2021/06/24 08:12:05;;;;;;;17.23;5.05;;;30.60;60.60;;;;;;5078016;28;20029;-91
2021/06/24 08:14:31;;;;;;;11.75;5.18;;;30.70;60.50;;;;;;5076761;28;20094;-90
2021/06/24 08:16:57;;;;;;;9.10;4.43;;;30.80;60.20;;;;;;5080582;28;20055;-90
2021/06/24 08:19:26;;;;;;;7.40;3.92;;;30.90;60.40;;;;;;5076589;28;20116;-91
2021/06/24 08:21:58;;;;;;;13.30;5.22;;;31.00;60.10;;;;;;5076639;28;20076;-90
2021/06/24 08:24:23;;;;;;;6.57;4.43;;;31.00;59.40;;;;;;5078269;28;20029;-90
2021/06/24 08:26:53;;;;;;;7.05;4.53;;;30.90;59.60;;;;;;5077146;28;20124;-92
2021/06/24 08:29:19;;;;;;;9.05;5.47;;;31.00;59.60;;;;;;5074049;28;20475;-90
2021/06/24 08:31:45;;;;;;;15.20;5.80;;;31.00;59.20;;;;;;5073781;28;20028;-91
2021/06/24 08:34:11;;;;;;;7.88;5.63;;;31.00;58.90;;;;;;5073630;28;20029;-91
2021/06/24 08:36:37;;;;;;;8.60;4.90;;;30.90;59.00;;;;;;5073120;28;20025;-91
2021/06/24 08:39:04;;;;;;;12.55;5.30;;;30.90;59.00;;;;;;5072297;28;20029;-91
2021/06/24 08:41:29;;;;;;;5.50;4.78;;;31.00;59.20;;;;;;5073120;28;20116;-90
2021/06/24 08:43:55;;;;;;;6.85;4.10;;;31.00;59.30;;;;;;5055464;28;20025;-90
2021/06/24 08:46:29;;;;;;;6.70;4.38;;;31.10;59.10;;;;;;5054903;28;20033;-92
2021/06/24 08:48:56;;;;;;;11.32;4.70;;;31.30;59.00;;;;;;5057684;28;20036;-90
2021/06/24 08:51:22;;;;;;;7.65;4.05;;;31.40;58.80;;;;;;5057471;28;20024;-90
2021/06/24 08:53:55;;;;;;;8.18;4.50;;;31.40;58.80;;;;;;5062423;28;20116;-92
2021/06/24 08:56:21;;;;;;;8.98;5.10;;;31.60;58.70;;;;;;5077150;28;20114;-91
2021/06/24 08:58:52;;;;;;;8.85;4.88;;;31.80;58.10;;;;;;5074139;28;20024;-92
2021/06/24 09:01:41;;;;;;;6.53;4.93;;;31.90;57.60;;;;;;5059643;28;20025;-91
2021/06/24 09:04:17;;;;;;;7.50;4.50;;;32.00;57.10;;;;;;5078458;28;20020;-91
2021/06/24 09:06:44;;;;;;;4.97;4.13;;;32.00;57.00;;;;;;5065409;28;20037;-90
2021/06/24 09:09:32;;;;;;;7.32;4.50;;;32.10;57.10;;;;;;5057964;28;20051;-91
2021/06/24 09:12:04;;;;;;;12.93;5.50;;;32.20;56.70;;;;;;5057614;28;20025;-91
2021/06/24 09:14:57;;;;;;;5.85;4.25;;;32.20;56.50;;;;;;5062070;28;20337;-93
2021/06/24 09:17:36;;;;;;;5.63;4.25;;;32.20;56.20;;;;;;5057941;28;20033;-92
2021/06/24 09:20:22;;;;;;;8.88;4.32;;;32.20;56.80;;;;;;5071034;28;20036;-92
2021/06/24 09:23:14;;;;;;;4.80;4.20;;;32.30;56.90;;;;;;5081485;28;20048;-91
2021/06/24 09:25:44;;;;;;;8.23;4.80;;;32.40;55.20;;;;;;5082874;28;20033;-89
2021/06/24 09:28:16;;;;;;;6.65;4.63;;;32.40;56.10;;;;;;5081038;28;20028;-90
2021/06/24 09:30:43;;;;;;;6.60;4.22;;;32.40;56.20;;;;;;5076627;28;20031;-90
2021/06/24 09:33:14;;;;;;;6.63;4.45;;;32.60;56.10;;;;;;5076337;28;20032;-90
2021/06/24 09:35:52;;;;;;;9.07;4.28;;;32.70;56.00;;;;;;5076493;28;20028;-90
2021/06/24 09:38:18;;;;;;;7.55;3.63;;;32.70;56.00;;;;;;5076752;28;20455;-90
2021/06/24 09:40:50;;;;;;;6.57;3.90;;;32.80;55.80;;;;;;5076364;28;20041;-90
2021/06/24 09:43:22;;;;;;;9.75;5.10;;;32.80;55.60;;;;;;5082921;28;20028;-88
2021/06/24 09:46:14;;;;;;;6.30;4.35;;;32.90;55.40;;;;;;5096667;28;20033;-90
2021/06/24 09:48:42;;;;;;;4.72;3.88;;;32.90;55.50;;;;;;5096863;28;20021;-89
2021/06/24 09:51:17;;;;;;;7.63;3.92;;;32.90;55.80;;;;;;5097686;28;20051;-90
2021/06/24 09:53:51;;;;;;;8.02;4.13;;;32.90;55.60;;;;;;5096795;28;20364;-90
2021/06/24 09:56:21;;;;;;;8.05;4.20;;;33.00;55.10;;;;;;5091530;28;20032;-89
2021/06/24 09:58:48;;;;;;;4.22;3.83;;;33.00;55.10;;;;;;5083372;28;20033;-90
2021/06/24 10:01:29;;;;;;;9.38;3.92;;;33.10;55.30;;;;;;5080158;28;20037;-90
2021/06/24 10:03:59;;;;;;;8.85;4.32;;;33.10;55.70;;;;;;5077237;28;20025;-91
2021/06/24 10:06:26;;;;;;;5.22;4.03;;;33.10;54.90;;;;;;5075930;28;20021;-89
2021/06/24 10:08:55;;;;;;;5.75;3.70;;;33.10;54.80;;;;;;5075593;28;20025;-90
2021/06/24 10:11:23;;;;;;;5.50;3.58;;;33.10;55.00;;;;;;5078754;28;20054;-90
2021/06/24 10:13:54;;;;;;;4.10;3.63;;;33.10;55.10;;;;;;5074762;28;20025;-90
2021/06/24 10:16:22;;;;;;;4.93;4.00;;;33.20;55.10;;;;;;5077025;28;20148;-90
2021/06/24 10:18:49;;;;;;;7.05;4.35;;;33.30;55.10;;;;;;5075016;28;20028;-89
2021/06/24 10:21:17;;;;;;;6.13;4.15;;;33.30;55.10;;;;;;5075049;28;20048;-89
2021/06/24 10:23:51;;;;;;;7.95;3.88;;;33.30;55.10;;;;;;5075405;28;20040;-90
2021/06/24 10:26:19;;;;;;;5.25;3.45;;;33.30;54.80;;;;;;5077097;28;20040;-91
2021/06/24 10:28:46;;;;;;;6.93;3.85;;;33.40;55.10;;;;;;5076187;28;20028;-90
2021/06/24 10:31:43;;;;;;;7.45;4.00;;;33.40;55.20;;;;;;5075290;28;20028;-90
2021/06/24 10:34:10;;;;;;;7.22;3.65;;;33.40;55.10;;;;;;5074128;28;20037;-90
2021/06/24 10:36:36;;;;;;;8.70;4.63;;;33.40;55.20;;;;;;5075494;28;20025;-90
2021/06/24 10:39:04;;;;;;;7.88;3.95;;;33.50;55.10;;;;;;5075863;28;20482;-90
2021/06/24 10:42:11;;;;;;;7.88;4.45;;;33.50;55.10;;;;;;5076669;28;20029;-89
2021/06/24 10:45:12;;;;;;;6.75;3.80;;;33.50;54.60;;;;;;5075020;28;20039;-89
2021/06/24 10:47:40;;;;;;;6.97;4.22;;;33.50;54.80;;;;;;5070015;28;20415;-89
2021/06/24 10:50:32;;;;;;;6.28;3.80;;;33.50;55.00;;;;;;5074362;28;20039;-90
2021/06/24 10:53:04;;;;;;;6.43;3.65;;;33.60;54.70;;;;;;5075003;28;20066;-90
2021/06/24 10:55:39;;;;;;;6.30;4.05;;;33.60;54.40;;;;;;5066612;28;20029;-89
2021/06/24 10:58:20;;;;;;;8.82;3.63;;;33.70;54.50;;;;;;5057598;28;20052;-90
2021/06/24 11:00:48;;;;;;;6.15;3.80;;;33.70;54.00;;;;;;5054972;28;20037;-90
2021/06/24 11:03:23;;;;;;;8.70;4.28;;;33.80;54.10;;;;;;5055606;28;20025;-89
2021/06/24 11:05:50;;;;;;;6.57;3.75;;;33.80;53.70;;;;;;5089331;28;20025;-91
2021/06/24 11:08:18;;;;;;;6.28;3.72;;;33.80;53.70;;;;;;5070052;28;20020;-90
2021/06/24 11:10:56;;;;;;;6.90;4.53;;;33.90;53.30;;;;;;5073220;28;20040;-91
2021/06/24 11:13:37;;;;;;;6.45;3.65;;;33.90;52.80;;;;;;5074440;28;20021;-90
2021/06/24 11:16:16;;;;;;;9.98;4.25;;;34.00;52.90;;;;;;5074964;28;20020;-91
2021/06/24 11:18:42;;;;;;;7.28;3.45;;;34.00;53.20;;;;;;5078453;28;20053;-91
2021/06/24 11:21:09;;;;;;;5.35;3.78;;;34.10;53.40;;;;;;5069043;28;20174;-93
2021/06/24 11:23:44;;;;;;;4.38;3.05;;;34.10;53.30;;;;;;5074068;28;20041;-92
2021/06/24 11:26:18;;;;;;;9.25;3.85;;;34.20;53.30;;;;;;5055622;28;20032;-91
2021/06/24 11:28:52;;;;;;;7.88;3.92;;;34.20;52.90;;;;;;5058329;28;20029;-92
2021/06/24 11:31:21;;;;;;;9.68;3.60;;;34.20;52.60;;;;;;5064022;28;20146;-92
2021/06/24 11:34:19;;;;;;;5.68;3.50;;;34.20;52.20;;;;;;5065521;28;20495;-91
2021/06/24 11:36:57;;;;;;;12.43;4.22;;;34.20;51.60;;;;;;5068275;28;20047;-92
2021/06/24 11:39:49;;;;;;;11.98;4.18;;;34.30;51.70;;;;;;5051329;28;20071;-92
2021/06/24 11:42:25;;;;;;;8.93;4.13;;;34.30;50.40;;;;;;5061290;28;20041;-92
2021/06/24 11:44:54;;;;;;;6.22;3.95;;;34.30;51.40;;;;;;5062402;28;20041;-93
2021/06/24 11:47:32;;;;;;;9.65;4.18;;;34.30;51.50;;;;;;5062029;28;20032;-91
2021/06/24 12:04:30;;;;;;;10.10;4.50;;;34.80;50.70;;;;;;5069113;28;20078;-92
2021/06/24 12:07:16;;;;;;;7.20;3.78;;;35.00;50.40;;;;;;5072474;28;20017;-92
2021/06/24 12:09:48;;;;;;;5.78;3.22;;;35.20;50.40;;;;;;5062084;28;20455;-92
2021/06/24 12:12:17;;;;;;;7.28;3.67;;;35.40;50.40;;;;;;5056405;28;20452;-92
2021/06/24 12:14:47;;;;;;;10.80;4.00;;;35.70;50.40;;;;;;5055109;28;20120;-93
2021/06/24 12:17:37;;;;;;;9.50;4.20;;;36.00;50.30;;;;;;5055395;28;20029;-92
2021/06/24 12:20:32;;;;;;;7.45;4.15;;;36.30;50.10;;;;;;5054249;28;20037;-91
2021/06/24 12:23:02;;;;;;;6.68;3.85;;;36.70;49.80;;;;;;5052598;28;20087;-91
2021/06/24 12:25:35;;;;;;;7.85;4.07;;;37.10;49.00;;;;;;5053279;28;20067;-92
2021/06/24 12:28:04;;;;;;;10.93;4.38;;;37.30;48.40;;;;;;5056853;28;20033;-92
2021/06/24 12:30:36;;;;;;;10.68;4.00;;;37.50;48.10;;;;;;5072504;28;20029;-93
2021/06/24 12:33:16;;;;;;;8.43;4.20;;;37.70;47.80;;;;;;5073701;28;20047;-94
2021/06/24 12:35:49;;;;;;;11.48;4.00;;;37.90;47.00;;;;;;5066632;28;20035;-92
2021/06/24 12:38:36;;;;;;;10.52;3.92;;;38.20;46.70;;;;;;5065608;28;20039;-92
2021/06/24 12:41:13;;;;;;;7.68;3.90;;;38.50;46.50;;;;;;5070753;28;20060;-90
2021/06/24 12:43:38;;;;;;;9.25;3.97;;;38.70;45.70;;;;;;5067185;28;20143;-91
2021/06/24 12:46:08;;;;;;;5.78;3.72;;;38.80;45.50;;;;;;5074059;28;20052;-90
2021/06/24 12:48:41;;;;;;;11.02;4.28;;;38.90;45.60;;;;;;5062624;28;20021;-89
2021/06/24 12:51:20;;;;;;;14.23;4.15;;;39.00;45.50;;;;;;5054591;28;20511;-90
2021/06/24 12:53:49;;;;;;;8.35;4.47;;;39.20;45.10;;;;;;5053370;28;20063;-91
2021/06/24 12:56:30;;;;;;;4.82;3.53;;;39.30;44.70;;;;;;5054757;28;20029;-91
2021/06/24 12:59:07;;;;;;;;;;;39.40;44.90;;;;;;5071309;28;20084;-90
2021/06/24 13:01:42;;;;;;;11.35;3.85;;;39.60;44.50;;;;;;5056004;28;20409;-91
2021/06/24 13:04:28;;;;;;;5.38;3.42;;;40.00;45.10;;;;;;5058601;28;20021;-89
2021/06/24 13:06:56;;;;;;;7.63;3.40;;;40.40;43.80;;;;;;5069507;28;20052;-91
2021/06/24 13:09:38;;;;;;;7.50;3.30;;;40.70;44.10;;;;;;5055022;28;20480;-91
2021/06/24 13:12:07;;;;;;;8.05;3.83;;;40.90;42.60;;;;;;5054535;28;20086;-91